Time;durP1;ratioP1;P1;durP2;ratioP2;P2;SDS_P1;SDS_P2;PMS_P1;PMS_P2;Temp;Humidity;BMP_temperature;BMP_pressure;BME280_temperature;BME280_humidity;BME280_pressure;Samples;Min_cycle;Max_cycle;Signal;HPM_P1;HPM_P2
2023/07/28 00:01:48;;;;;;;3.53;2.33;;;;;;;18.09;99.20;99981.03;5588872;31;33766;-61
2023/07/28 00:04:51;;;;;;;6.50;3.53;;;;;;;18.14;100.00;99986.53;5588724;31;34118;-60
2023/07/28 00:07:54;;;;;;;9.50;4.37;;;;;;;18.05;100.00;99987.91;5588921;31;33708;-61
2023/07/28 00:10:57;;;;;;;11.95;4.90;;;;;;;18.02;100.00;99981.09;5588739;31;33884;-61
2023/07/28 00:14:00;;;;;;;15.10;5.62;;;;;;;18.03;100.00;99988.09;5588634;31;34465;-61
2023/07/28 00:17:03;;;;;;;10.30;4.90;;;;;;;18.05;100.00;99971.78;5588434;31;33729;-61
2023/07/28 00:20:09;;;;;;;10.98;4.60;;;;;;;18.02;100.00;99969.53;5588449;31;35286;-61
2023/07/28 00:23:12;;;;;;;9.80;5.00;;;;;;;18.04;100.00;99970.13;5588422;31;33864;-61
2023/07/28 00:26:14;;;;;;;10.25;4.18;;;;;;;18.04;100.00;99964.78;5587670;31;34427;-61
2023/07/28 00:29:17;;;;;;;6.70;3.87;;;;;;;18.05;100.00;99972.59;5587643;31;33916;-61
2023/07/28 00:32:20;;;;;;;6.15;3.20;;;;;;;17.94;100.00;99972.53;5588336;31;33966;-61
2023/07/28 00:35:23;;;;;;;8.30;3.22;;;;;;;17.90;100.00;99968.66;5588185;31;34502;-61
2023/07/28 00:38:27;;;;;;;7.30;2.40;;;;;;;17.83;100.00;99973.28;5587432;31;33892;-61
2023/07/28 00:41:31;;;;;;;7.70;2.37;;;;;;;17.78;100.00;99963.22;5588198;31;34571;-61
2023/07/28 00:44:34;;;;;;;3.83;1.83;;;;;;;17.74;100.00;99960.19;5587809;31;33832;-61
2023/07/28 00:47:39;;;;;;;3.95;1.90;;;;;;;17.76;100.00;99962.66;5587533;31;34819;-61
2023/07/28 00:50:47;;;;;;;3.05;1.92;;;;;;;17.77;100.00;99959.72;5587059;31;33797;-61
2023/07/28 00:53:52;;;;;;;5.57;2.10;;;;;;;17.84;100.00;99954.28;5587952;31;33724;-61
2023/07/28 00:56:55;;;;;;;5.32;2.00;;;;;;;17.94;100.00;99949.22;5587873;31;33848;-61
2023/07/28 01:00:00;;;;;;;3.53;1.95;;;;;;;18.01;100.00;99954.50;5587358;31;33757;-61
2023/07/28 01:03:03;;;;;;;3.35;2.03;;;;;;;17.98;100.00;99958.44;5587802;31;33787;-61
2023/07/28 01:06:47;;;;;;;4.57;1.80;;;;;;;18.08;100.00;99956.03;5587640;31;34001;-61
2023/07/28 01:09:56;;;;;;;3.10;1.75;;;;;;;18.04;100.00;99954.03;5586919;31;34481;-61
2023/07/28 01:12:59;;;;;;;;;;;;;;;18.07;100.00;99954.38;5587806;31;33743;-61
2023/07/28 01:16:02;;;;;;;4.22;1.62;;;;;;;18.18;100.00;99953.63;5587537;31;34194;-61
2023/07/28 01:19:06;;;;;;;4.68;1.60;;;;;;;18.34;100.00;99946.81;5573773;31;33773;-61
2023/07/28 01:22:54;;;;;;;3.22;1.80;;;;;;;18.44;99.31;99944.38;5586681;31;33756;-61
2023/07/28 01:26:05;;;;;;;4.87;1.60;;;;;;;18.63;96.02;99958.59;5587239;31;34575;-61
2023/07/28 01:29:10;;;;;;;6.57;1.83;;;;;;;18.61;97.00;99961.50;5589992;31;35087;-61
2023/07/28 01:32:14;;;;;;;4.65;1.70;;;;;;;18.66;98.09;99950.88;5590254;31;34510;-61
2023/07/28 01:35:17;;;;;;;5.07;2.00;;;;;;;18.65;99.47;99943.88;5590249;31;33837;-61
2023/07/28 01:38:20;;;;;;;5.07;2.20;;;;;;;18.46;100.00;99944.12;5590063;31;34009;-61
2023/07/28 01:41:22;;;;;;;4.20;2.10;;;;;;;18.39;100.00;99944.25;5589399;31;33832;-61
2023/07/28 01:44:25;;;;;;;4.05;2.12;;;;;;;18.34;100.00;99945.97;5590273;31;33862;-61
2023/07/28 01:47:29;;;;;;;4.60;2.00;;;;;;;18.26;100.00;99952.47;5590243;31;35352;-61
2023/07/28 01:50:32;;;;;;;3.95;2.00;;;;;;;18.21;100.00;99939.75;5590021;31;34514;-61
2023/07/28 01:53:35;;;;;;;4.25;1.95;;;;;;;18.23;100.00;99943.03;5590065;31;34939;-61
2023/07/28 01:56:38;;;;;;;3.67;2.08;;;;;;;18.23;100.00;99947.56;5590180;31;35263;-61
2023/07/28 01:59:40;;;;;;;5.32;2.17;;;;;;;18.14;100.00;99947.09;5589732;31;34078;-61
2023/07/28 02:02:43;;;;;;;4.62;1.83;;;;;;;18.14;100.00;99947.09;5589479;31;32844;-61
2023/07/28 02:05:47;;;;;;;4.00;2.00;;;;;;;18.17;100.00;99943.09;5589279;31;34467;-60
2023/07/28 02:08:49;;;;;;;3.33;2.17;;;;;;;18.06;100.00;99944.69;5589103;31;35082;-61
2023/07/28 02:11:53;;;;;;;5.10;2.15;;;;;;;18.03;100.00;99938.97;5589143;31;34819;-61
2023/07/28 02:14:56;;;;;;;4.40;2.00;;;;;;;18.05;100.00;99944.94;5589922;31;33793;-61
2023/07/28 02:17:59;;;;;;;5.82;1.85;;;;;;;17.98;100.00;99944.19;5589885;31;33813;-61
2023/07/28 02:21:01;;;;;;;3.58;1.83;;;;;;;18.02;100.00;99940.00;5589884;31;33789;-61
2023/07/28 02:24:04;;;;;;;3.33;1.80;;;;;;;18.04;100.00;99935.25;5590189;31;33886;-61
2023/07/28 02:27:07;;;;;;;5.47;2.10;;;;;;;17.98;100.00;99934.28;5589931;31;34559;-61
2023/07/28 02:30:10;;;;;;;3.05;1.90;;;;;;;17.95;100.00;99933.91;5589894;31;34090;-61
2023/07/28 02:33:13;;;;;;;3.28;2.10;;;;;;;17.97;100.00;99945.22;5589069;31;35281;-61
2023/07/28 02:36:16;;;;;;;4.75;1.90;;;;;;;17.92;100.00;99937.03;5589956;31;33895;-61
2023/07/28 02:39:20;;;;;;;3.67;1.92;;;;;;;17.92;100.00;99937.84;5588455;31;34678;-61
2023/07/28 02:42:25;;;;;;;4.93;2.15;;;;;;;17.91;100.00;99936.22;5588863;31;34615;-62
2023/07/28 02:45:27;;;;;;;5.20;2.20;;;;;;;17.88;100.00;99928.62;5589597;31;33887;-60
2023/07/28 02:48:30;;;;;;;3.92;1.92;;;;;;;17.92;100.00;99920.94;5589659;31;33947;-61
2023/07/28 02:51:34;;;;;;;6.65;2.05;;;;;;;17.92;100.00;99931.66;5589542;31;33934;-61
2023/07/28 02:54:37;;;;;;;3.22;2.12;;;;;;;17.96;100.00;99936.34;5588988;31;34530;-61
2023/07/28 02:57:40;;;;;;;3.87;1.80;;;;;;;17.99;100.00;99935.09;5589569;31;33664;-61
2023/07/28 03:00:46;;;;;;;5.00;2.08;;;;;;;18.00;100.00;99932.19;5589031;31;33876;-61
2023/07/28 03:03:50;;;;;;;5.00;2.12;;;;;;;17.99;100.00;99938.59;5589527;31;34725;-61
2023/07/28 03:06:53;;;;;;;5.80;2.08;;;;;;;17.93;100.00;99936.00;5588885;31;34364;-61
2023/07/28 03:09:56;;;;;;;3.80;2.05;;;;;;;17.86;100.00;99933.41;5589983;31;34067;-61
2023/07/28 03:13:00;;;;;;;6.80;2.22;;;;;;;17.91;100.00;99922.81;5588731;31;33795;-61
2023/07/28 03:16:03;;;;;;;3.95;1.95;;;;;;;17.98;100.00;99922.72;5588855;31;33897;-61
2023/07/28 03:19:07;;;;;;;4.32;2.08;;;;;;;17.97;100.00;99919.22;5589605;31;33790;-61
2023/07/28 03:22:10;;;;;;;3.58;2.10;;;;;;;17.94;100.00;99924.22;5589460;31;34585;-61
2023/07/28 03:25:13;;;;;;;6.03;2.30;;;;;;;17.94;100.00;99926.91;5589533;31;34002;-61
2023/07/28 03:28:16;;;;;;;3.83;2.20;;;;;;;17.88;100.00;99933.19;5589508;31;33788;-61
2023/07/28 03:31:20;;;;;;;5.43;2.17;;;;;;;17.92;100.00;99926.31;5588611;31;34631;-61
2023/07/28 03:34:24;;;;;;;4.05;2.12;;;;;;;17.86;100.00;99909.28;5589404;31;34746;-61
2023/07/28 03:37:27;;;;;;;5.12;2.22;;;;;;;17.74;100.00;99901.16;5589446;31;33819;-61
2023/07/28 03:40:30;;;;;;;4.30;2.00;;;;;;;17.75;100.00;99899.28;5589208;31;34698;-61
2023/07/28 03:43:33;;;;;;;5.85;2.05;;;;;;;17.81;100.00;99907.25;5589337;31;33912;-61
2023/07/28 03:46:36;;;;;;;3.20;1.80;;;;;;;17.80;100.00;99926.25;5589168;31;33569;-61
2023/07/28 03:49:39;;;;;;;3.35;2.05;;;;;;;17.81;100.00;99930.59;5587779;31;32731;-61
2023/07/28 03:52:42;;;;;;;2.50;1.83;;;;;;;17.86;100.00;99925.37;5588967;31;33959;-61
2023/07/28 03:55:45;;;;;;;5.62;2.08;;;;;;;17.87;100.00;99926.97;5588848;31;33975;-61
2023/07/28 03:58:48;;;;;;;7.28;2.70;;;;;;;17.94;100.00;99925.06;5588905;31;33799;-61
2023/07/28 04:01:52;;;;;;;6.15;2.10;;;;;;;17.99;100.00;99930.56;5589142;31;33943;-60
2023/07/28 04:04:56;;;;;;;3.72;2.20;;;;;;;18.05;100.00;99934.19;5588110;31;33876;-61
2023/07/28 04:07:59;;;;;;;5.75;2.12;;;;;;;18.02;100.00;99926.59;5588323;31;34525;-61
2023/07/28 04:11:03;;;;;;;3.87;2.00;;;;;;;18.00;100.00;99939.44;5588524;31;34136;-61
2023/07/28 04:14:06;;;;;;;4.07;1.80;;;;;;;18.03;100.00;99937.09;5587936;31;33934;-61
2023/07/28 04:17:11;;;;;;;5.50;1.70;;;;;;;18.06;100.00;99938.50;5587946;31;34059;-61
2023/07/28 04:20:14;;;;;;;8.40;1.85;;;;;;;18.12;100.00;99945.66;5587901;31;34388;-61
2023/07/28 04:23:17;;;;;;;2.87;1.90;;;;;;;18.19;100.00;99946.41;5588540;31;33951;-61
2023/07/28 04:26:20;;;;;;;2.70;1.80;;;;;;;18.23;100.00;99942.22;5588472;31;33803;-61
2023/07/28 04:29:25;;;;;;;4.22;2.10;;;;;;;18.27;100.00;99950.63;5588278;31;33730;-60
2023/07/28 04:32:28;;;;;;;3.75;1.98;;;;;;;18.27;100.00;99945.25;5588348;31;33782;-60
2023/07/28 04:35:32;;;;;;;4.25;1.90;;;;;;;18.27;100.00;99932.66;5588298;31;33954;-61
2023/07/28 04:38:35;;;;;;;3.80;2.00;;;;;;;18.36;100.00;99938.50;5588368;31;35071;-60
2023/07/28 04:41:39;;;;;;;5.00;2.35;;;;;;;18.40;100.00;99932.44;5587350;31;34605;-61
2023/07/28 04:44:42;;;;;;;5.57;1.95;;;;;;;18.47;100.00;99933.19;5588212;31;33841;-60
2023/07/28 04:47:45;;;;;;;4.30;1.95;;;;;;;18.55;98.95;99934.72;5587319;31;34483;-60
2023/07/28 04:50:48;;;;;;;3.35;1.60;;;;;;;18.73;97.12;99923.09;5587136;31;34699;-60
2023/07/28 04:53:51;;;;;;;3.03;1.80;;;;;;;18.81;94.67;99920.88;5587966;31;34747;-60
2023/07/28 04:56:57;;;;;;;2.75;1.67;;;;;;;18.88;96.10;99910.03;5587274;31;33925;-61
2023/07/28 05:00:01;;;;;;;6.30;1.83;;;;;;;18.87;90.88;99908.38;5587840;31;34595;-60
2023/07/28 05:03:04;;;;;;;5.37;3.03;;;;;;;19.05;92.43;99913.66;5589785;31;34002;-61
2023/07/28 05:06:09;;;;;;;6.30;1.70;;;;;;;19.10;93.59;99916.44;5589805;31;33809;-60
2023/07/28 05:09:12;;;;;;;2.65;1.77;;;;;;;19.21;90.26;99921.00;5590713;31;33921;-60
2023/07/28 05:12:15;;;;;;;3.25;1.80;;;;;;;19.30;90.80;99929.53;5590202;31;34280;-60
2023/07/28 05:15:18;;;;;;;6.78;2.03;;;;;;;19.50;87.63;99935.41;5590224;31;33900;-61
2023/07/28 05:18:21;;;;;;;3.60;1.62;;;;;;;19.45;87.70;99927.22;5589415;31;33889;-61
2023/07/28 05:21:25;;;;;;;4.70;1.67;;;;;;;19.41;87.01;99923.34;5590906;31;34278;-61
2023/07/28 05:24:28;;;;;;;4.95;1.80;;;;;;;19.68;87.13;99912.88;5589512;31;34629;-61
2023/07/28 05:27:31;;;;;;;5.97;1.92;;;;;;;19.73;85.97;99907.59;5590314;31;34018;-60
2023/07/28 05:30:34;;;;;;;4.32;1.98;;;;;;;19.68;90.47;99905.62;5590307;31;33934;-61
2023/07/28 05:33:40;;;;;;;5.07;1.90;;;;;;;19.81;85.38;99904.53;5590184;31;33440;-61
2023/07/28 05:36:52;;;;;;;3.28;1.77;;;;;;;19.69;84.56;99917.22;5589594;31;33930;-60
2023/07/28 05:39:55;;;;;;;5.03;2.00;;;;;;;20.01;84.20;99922.94;5590258;31;33886;-62
2023/07/28 05:42:58;;;;;;;5.07;1.73;;;;;;;20.05;80.82;99927.63;5589313;31;34437;-62
2023/07/28 05:46:01;;;;;;;5.47;1.98;;;;;;;20.25;78.66;99925.31;5589719;31;33890;-62
2023/07/28 05:49:05;;;;;;;5.53;1.80;;;;;;;20.23;77.09;99935.53;5589242;31;34184;-62
2023/07/28 05:52:08;;;;;;;5.05;2.28;;;;;;;20.32;75.71;99939.47;5576308;31;33854;-62
2023/07/28 05:55:11;;;;;;;4.85;1.73;;;;;;;20.26;76.74;99950.38;5589974;31;33880;-62
2023/07/28 05:58:15;;;;;;;6.00;2.00;;;;;;;20.25;76.62;99954.13;5589213;31;34608;-62
2023/07/28 06:01:18;;;;;;;3.92;1.60;;;;;;;20.26;77.77;99961.97;5589180;31;33795;-62
2023/07/28 06:04:25;;;;;;;10.98;1.98;;;;;;;20.27;77.67;99955.53;5589914;31;33780;-61
2023/07/28 06:07:28;;;;;;;4.18;1.67;;;;;;;20.46;74.92;99966.94;5588984;31;33858;-62
2023/07/28 06:10:31;;;;;;;9.77;2.10;;;;;;;20.51;74.20;99967.03;5589663;31;34918;-63
2023/07/28 06:13:34;;;;;;;6.90;1.80;;;;;;;20.61;73.23;99966.38;5589092;31;34503;-62
2023/07/28 06:16:37;;;;;;;3.58;1.60;;;;;;;20.56;71.44;99963.59;5589832;31;34532;-62
2023/07/28 06:19:40;;;;;;;3.75;1.77;;;;;;;20.57;71.51;99965.25;5589254;31;34539;-63
2023/07/28 06:22:43;;;;;;;6.43;1.90;;;;;;;20.88;70.25;99970.06;5590044;31;33994;-62
2023/07/28 06:25:46;;;;;;;9.35;1.58;;;;;;;21.08;69.04;99966.88;5589967;31;34436;-62
2023/07/28 06:28:49;;;;;;;2.85;1.70;;;;;;;21.31;68.38;99969.44;5590141;31;34462;-62
2023/07/28 06:31:52;;;;;;;4.57;1.73;;;;;;;21.22;67.42;99962.81;5589701;31;34534;-62
2023/07/28 06:34:55;;;;;;;3.42;1.70;;;;;;;21.41;67.15;99963.34;5588849;31;33825;-62
2023/07/28 06:37:59;;;;;;;6.70;1.98;;;;;;;21.36;65.60;99964.09;5589074;31;33775;-62
2023/07/28 06:41:03;;;;;;;6.47;1.85;;;;;;;21.41;68.50;99957.97;5588795;31;34949;-63
2023/07/28 06:44:08;;;;;;;6.45;2.17;;;;;;;21.13;67.10;99964.28;5589254;31;34029;-63
2023/07/28 06:47:11;;;;;;;6.68;1.98;;;;;;;21.17;71.65;99960.03;5589499;31;34473;-62
2023/07/28 06:50:15;;;;;;;5.22;1.77;;;;;;;21.49;68.99;99958.38;5589512;31;33958;-62
2023/07/28 06:53:18;;;;;;;5.90;2.08;;;;;;;21.51;68.02;99958.91;5588827;31;33434;-62
2023/07/28 06:56:21;;;;;;;11.52;2.05;;;;;;;21.74;68.25;99957.88;5588713;31;33829;-63
2023/07/28 07:46:25;;;;;;;4.30;1.98;;;;;;;23.81;56.87;99907.44;5617089;31;121158;-70
2023/07/28 07:49:28;;;;;;;10.18;2.42;;;;;;;23.81;56.87;99907.44;5620820;31;33472;-70
2023/07/28 07:52:30;;;;;;;4.65;1.70;;;;;;;23.56;59.58;99916.28;5620923;31;33683;-70
2023/07/28 07:55:33;;;;;;;5.90;1.70;;;;;;;23.71;56.60;99913.66;5621167;31;33926;-71
2023/07/28 07:58:37;;;;;;;2.80;1.60;;;;;;;23.55;56.66;99898.41;5621161;31;34223;-71
2023/07/28 08:01:39;;;;;;;5.60;1.70;;;;;;;24.04;55.26;99904.25;5618163;31;34399;-70
2023/07/28 08:04:43;;;;;;;7.37;2.20;;;;;;;24.40;57.24;99910.56;5621158;31;33591;-70
2023/07/28 08:07:47;;;;;;;4.32;1.65;;;;;;;24.43;54.80;99918.19;5620928;31;34355;-70
2023/07/28 08:10:50;;;;;;;5.45;2.03;;;;;;;24.14;57.20;99915.13;5620614;31;34169;-71
2023/07/28 08:13:53;;;;;;;6.57;1.77;;;;;;;24.40;53.71;99921.41;5620807;31;33739;-71
2023/07/28 08:16:56;;;;;;;4.10;1.50;;;;;;;24.27;54.73;99921.94;5620832;31;33986;-70
2023/07/28 08:19:58;;;;;;;5.80;2.00;;;;;;;24.33;57.37;99926.31;5620879;31;33745;-72
2023/07/28 08:23:01;;;;;;;4.10;1.62;;;;;;;24.41;56.49;99923.06;5620811;31;34542;-70
2023/07/28 08:26:04;;;;;;;3.70;1.67;;;;;;;24.47;54.13;99921.16;5621290;31;34190;-70
2023/07/28 08:29:07;;;;;;;4.30;1.95;;;;;;;24.55;54.29;99924.16;5620792;31;34325;-71
2023/07/28 08:32:09;;;;;;;2.30;1.80;;;;;;;24.50;52.99;99921.44;5620681;31;33857;-69
2023/07/28 08:35:12;;;;;;;6.32;2.15;;;;;;;24.33;52.96;99920.88;5620290;31;34444;-70
2023/07/28 08:38:15;;;;;;;5.82;2.80;;;;;;;24.06;53.93;99912.13;5620272;31;33676;-72
2023/07/28 08:41:19;;;;;;;2.70;1.80;;;;;;;24.18;57.66;99899.97;5603891;31;33684;-70
2023/07/28 08:44:22;;;;;;;5.93;1.67;;;;;;;24.50;55.69;99904.34;5600402;31;33669;-71
2023/07/28 08:47:25;;;;;;;6.93;2.03;;;;;;;24.59;53.70;99891.91;5587739;31;34973;-71
2023/07/28 08:50:27;;;;;;;3.25;1.80;;;;;;;26.34;50.08;99883.44;5587458;31;33731;-69
2023/07/28 08:53:30;;;;;;;5.95;1.87;;;;;;;27.75;46.82;99891.28;5586385;31;33745;-69
2023/07/28 08:56:33;;;;;;;7.37;2.00;;;;;;;28.15;43.98;99881.78;5587702;31;33772;-74
2023/07/28 08:59:41;;;;;;;5.87;1.80;;;;;;;28.89;43.65;99878.13;5587654;31;33661;-71
2023/07/28 09:02:45;;;;;;;8.13;1.90;;;;;;;29.66;40.16;99872.81;5587525;31;33896;-74
2023/07/28 09:05:48;;;;;;;5.85;1.70;;;;;;;29.48;40.87;99864.72;5586617;31;33019;-71
2023/07/28 09:08:51;;;;;;;5.93;1.75;;;;;;;30.15;39.34;99865.72;5587682;31;33790;-72
2023/07/28 09:11:54;;;;;;;4.05;1.70;;;;;;;28.85;40.64;99859.91;5587576;31;33687;-72
2023/07/28 09:14:56;;;;;;;8.77;1.62;;;;;;;30.17;38.30;99866.19;5587554;31;33856;-73
2023/07/28 09:18:00;;;;;;;4.45;1.55;;;;;;;30.45;38.01;99855.97;5587472;31;33023;-73
2023/07/28 09:21:03;;;;;;;7.07;1.67;;;;;;;30.46;38.13;99861.16;5587161;31;33669;-73
2023/07/28 09:24:08;;;;;;;3.90;1.50;;;;;;;30.82;37.58;99849.28;5591348;31;34669;-72
2023/07/28 09:27:24;;;;;;;4.10;1.60;;;;;;;31.58;36.00;99866.38;5605800;31;33488;-72
2023/07/28 09:30:27;;;;;;;5.45;1.50;;;;;;;31.88;34.98;99866.28;5606899;31;33661;-73
2023/07/28 09:33:31;;;;;;;4.53;1.50;;;;;;;31.52;36.04;99870.41;5606696;31;33836;-73
2023/07/28 09:36:38;;;;;;;6.68;1.37;;;;;;;32.18;34.78;99878.28;5607038;31;33698;-73
2023/07/28 09:39:41;;;;;;;5.82;1.55;;;;;;;32.31;35.03;99869.06;5606871;31;35236;-71
2023/07/28 09:42:49;;;;;;;3.15;1.58;;;;;;;31.95;34.94;99867.75;5607191;31;33435;-70
2023/07/28 09:45:56;;;;;;;2.65;1.42;;;;;;;31.90;36.30;99863.22;5606585;31;33661;-72
2023/07/28 09:49:04;;;;;;;3.95;1.60;;;;;;;31.32;37.27;99867.06;5605941;31;33587;-70
2023/07/28 09:52:11;;;;;;;2.70;1.45;;;;;;;32.26;35.22;99868.41;5604001;31;34684;-70
2023/07/28 09:55:16;;;;;;;2.17;1.50;;;;;;;32.66;34.49;99866.28;5587151;31;33547;-68
2023/07/28 09:58:21;;;;;;;5.35;1.58;;;;;;;32.17;34.94;99862.13;5586628;31;34496;-71
2023/07/28 10:01:26;;;;;;;6.10;1.42;;;;;;;32.44;34.73;99847.22;5605045;31;33703;-71
2023/07/28 10:04:30;;;;;;;4.95;1.40;;;;;;;32.09;35.46;99847.25;5603691;31;35017;-71
2023/07/28 10:07:39;;;;;;;1.67;1.30;;;;;;;31.50;36.99;99838.63;5593434;31;33653;-70
2023/07/28 10:10:43;;;;;;;8.32;1.70;;;;;;;32.99;35.32;99841.78;5589000;31;35195;-70
2023/07/28 10:13:47;;;;;;;4.43;1.40;;;;;;;34.10;33.29;99843.06;5587207;31;33744;-71
2023/07/28 10:16:50;;;;;;;2.62;1.48;;;;;;;34.59;32.29;99846.84;5585991;31;33771;-71
2023/07/28 10:19:53;;;;;;;7.50;1.58;;;;;;;34.33;32.48;99838.84;5587116;31;33420;-71
2023/07/28 10:23:04;;;;;;;2.22;1.20;;;;;;;33.87;33.40;99831.63;5600517;31;33629;-72
2023/07/28 10:26:06;;;;;;;2.00;1.40;;;;;;;34.62;32.41;99823.31;5587243;31;34499;-70
2023/07/28 10:29:19;;;;;;;3.15;1.40;;;;;;;35.28;31.98;99841.37;5586993;31;32892;-70
2023/07/28 10:32:32;;;;;;;1.70;1.30;;;;;;;34.63;32.90;99839.50;5586217;31;33924;-71
2023/07/28 10:35:47;;;;;;;3.83;1.45;;;;;;;34.88;30.89;99835.69;5588223;31;33648;-71
2023/07/28 10:39:07;;;;;;;4.40;1.60;;;;;;;33.96;31.34;99835.09;5606864;31;33692;-71
2023/07/28 10:42:10;;;;;;;4.78;1.70;;;;;;;33.35;32.67;99833.87;5605754;31;33375;-72
2023/07/28 10:45:13;;;;;;;4.15;1.60;;;;;;;34.16;32.24;99836.22;5606113;31;33431;-70
2023/07/28 10:48:16;;;;;;;3.80;1.37;;;;;;;33.15;33.10;99835.44;5603370;31;33770;-69
2023/07/28 10:51:24;;;;;;;3.15;1.60;;;;;;;31.81;34.84;99829.47;5586717;31;33699;-71
2023/07/28 10:54:30;;;;;;;6.50;1.45;;;;;;;32.56;34.41;99828.16;5586740;31;33453;-70
2023/07/28 10:57:35;;;;;;;4.45;1.40;;;;;;;34.37;32.27;99841.75;5590349;31;34443;-69
2023/07/28 11:00:38;;;;;;;8.52;1.77;;;;;;;34.46;31.79;99835.00;5586741;31;33821;-70
2023/07/28 11:03:41;;;;;;;6.40;1.70;;;;;;;34.40;31.84;99827.28;5586643;31;33520;-71
2023/07/28 11:06:47;;;;;;;5.40;1.40;;;;;;;34.45;31.86;99833.37;5601549;31;33747;-69
2023/07/28 11:09:50;;;;;;;6.62;1.45;;;;;;;35.20;30.85;99822.16;5606151;31;33758;-70
2023/07/28 11:12:54;;;;;;;5.00;1.50;;;;;;;36.71;29.35;99827.84;5606463;31;33520;-72
2023/07/28 11:15:57;;;;;;;7.32;1.60;;;;;;;36.35;29.65;99828.03;5606178;31;34233;-70
2023/07/28 11:19:24;;;;;;;7.78;1.50;;;;;;;32.62;34.41;99824.09;5606286;31;34442;-70
2023/07/28 11:22:28;;;;;;;4.68;1.50;;;;;;;33.50;33.40;99810.50;5606573;31;33756;-70
2023/07/28 11:25:32;;;;;;;6.12;1.60;;;;;;;34.38;31.76;99815.78;5606161;31;34169;-69
2023/07/28 11:28:35;;;;;;;3.60;1.48;;;;;;;34.25;32.33;99822.41;5606051;31;33716;-69
2023/07/28 11:31:40;;;;;;;6.28;1.77;;;;;;;34.04;32.90;99814.94;5605672;31;34355;-70
2023/07/28 11:34:44;;;;;;;4.20;1.40;;;;;;;33.96;33.10;99815.84;5604870;31;33914;-70
2023/07/28 11:37:51;;;;;;;5.68;1.42;;;;;;;35.26;31.03;99812.50;5605755;31;33695;-70
2023/07/28 11:40:54;;;;;;;3.97;1.50;;;;;;;35.90;30.21;99809.78;5605832;31;33409;-69
2023/07/28 11:43:58;;;;;;;9.70;1.50;;;;;;;36.14;29.70;99812.47;5605519;31;34799;-71
2023/07/28 11:47:05;;;;;;;2.25;1.30;;;;;;;35.66;30.07;99823.66;5605662;31;33497;-70
2023/07/28 11:50:21;;;;;;;4.12;1.70;;;;;;;34.79;30.89;99807.44;5604587;31;33771;-70
2023/07/28 11:53:25;;;;;;;4.18;1.58;;;;;;;36.42;30.28;99801.38;5604604;31;34766;-69
2023/07/28 11:56:30;;;;;;;4.55;1.80;;;;;;;35.23;30.37;99800.22;5599417;31;34380;-70
2023/07/28 11:59:34;;;;;;;3.85;1.42;;;;;;;35.33;30.48;99804.47;5605487;31;33700;-69
2023/07/28 12:02:38;;;;;;;2.17;1.33;;;;;;;37.42;28.06;99802.72;5591994;31;34209;-72
2023/07/28 12:05:58;;;;;;;8.32;1.62;;;;;;;35.83;28.75;99800.47;5590426;31;34766;-70
2023/07/28 12:09:15;;;;;;;2.80;1.58;;;;;;;36.07;28.83;99789.34;5589132;31;33452;-71
2023/07/28 12:12:19;;;;;;;2.90;1.50;;;;;;;38.61;26.63;99786.22;5585335;31;33681;-71
2023/07/28 12:15:30;;;;;;;4.60;1.40;;;;;;;38.51;26.12;99788.81;5585592;31;34793;-71
2023/07/28 12:18:45;;;;;;;11.75;1.60;;;;;;;36.77;28.44;99778.63;5585375;31;33664;-71
2023/07/28 12:21:51;;;;;;;5.25;1.80;;;;;;;37.55;28.21;99775.78;5587220;31;33545;-70
2023/07/28 12:24:54;;;;;;;5.47;1.70;;;;;;;36.05;29.23;99780.63;5588252;31;33761;-69
2023/07/28 12:27:57;;;;;;;6.25;1.70;;;;;;;36.88;28.57;99785.22;5587931;31;33685;-71
2023/07/28 12:31:01;;;;;;;6.20;1.48;;;;;;;38.69;27.15;99782.38;5588192;31;35021;-71
2023/07/28 12:34:04;;;;;;;3.60;1.50;;;;;;;39.12;26.37;99783.09;5587994;31;33670;-70
2023/07/28 12:37:07;;;;;;;2.00;1.37;;;;;;;40.34;24.46;99770.44;5588390;31;34172;-69
2023/07/28 12:40:13;;;;;;;2.35;1.20;;;;;;;39.59;25.29;99770.72;5588042;31;34447;-71
2023/07/28 12:43:19;;;;;;;2.80;1.33;;;;;;;39.59;25.18;99765.16;5587882;31;33792;-70
2023/07/28 12:46:27;;;;;;;2.85;1.50;;;;;;;39.92;25.24;99760.47;5588141;31;34407;-71
2023/07/28 12:49:31;;;;;;;3.78;1.45;;;;;;;40.91;25.28;99766.19;5588194;31;34238;-69
2023/07/28 12:52:34;;;;;;;1.73;1.35;;;;;;;39.26;24.94;99761.12;5588163;31;33783;-69
2023/07/28 12:55:40;;;;;;;4.57;1.45;;;;;;;41.37;23.10;99766.53;5587589;31;33793;-69
2023/07/28 12:59:02;;;;;;;3.58;1.50;;;;;;;42.84;21.70;99767.44;5586764;31;34319;-69
2023/07/28 13:02:07;;;;;;;4.22;1.35;;;;;;;41.79;22.96;99763.16;5587774;31;33762;-71
2023/07/28 13:05:12;;;;;;;5.80;1.23;;;;;;;43.49;21.70;99768.94;5587701;31;34466;-69
2023/07/28 13:08:16;;;;;;;3.62;1.20;;;;;;;43.57;21.11;99767.72;5587368;31;34517;-70
2023/07/28 13:11:19;;;;;;;4.35;1.70;;;;;;;39.65;23.85;99763.66;5587127;31;33744;-69
2023/07/28 13:14:22;;;;;;;2.50;1.48;;;;;;;40.44;23.05;99763.38;5588039;31;33725;-70
2023/07/28 13:17:24;;;;;;;2.90;1.40;;;;;;;41.99;21.90;99758.09;5587573;31;33574;-70
2023/07/28 13:20:30;;;;;;;1.40;1.30;;;;;;;40.57;22.28;99761.94;5587576;31;34473;-70
2023/07/28 13:23:34;;;;;;;2.97;1.42;;;;;;;42.87;20.66;99752.66;5586412;31;34283;-69
2023/07/28 13:26:37;;;;;;;4.53;1.45;;;;;;;41.17;21.72;99759.66;5587361;31;34007;-70
2023/07/28 13:29:39;;;;;;;3.92;1.62;;;;;;;36.43;26.46;99755.22;5587551;31;33690;-70
2023/07/28 13:32:42;;;;;;;4.37;1.50;;;;;;;37.92;25.69;99745.69;5587499;31;33750;-70
2023/07/28 13:35:45;;;;;;;2.30;1.40;;;;;;;37.96;25.37;99760.41;5587469;31;33509;-69
2023/07/28 13:38:49;;;;;;;3.00;1.67;;;;;;;37.43;26.10;99750.97;5587388;31;33532;-71
2023/07/28 13:41:51;;;;;;;2.67;1.50;;;;;;;35.08;28.86;99754.03;5586711;31;34450;-69
2023/07/28 13:44:54;;;;;;;3.72;1.80;;;;;;;31.98;33.43;99747.16;5587281;31;33560;-69
2023/07/28 13:48:00;;;;;;;2.83;1.50;;;;;;;31.16;35.16;99747.28;5587276;31;33739;-69
2023/07/28 13:51:03;;;;;;;2.08;1.65;;;;;;;30.66;36.13;99742.09;5587249;31;34582;-68
2023/07/28 13:54:06;;;;;;;2.78;1.55;;;;;;;29.83;38.23;99745.53;5587203;31;34248;-70
2023/07/28 13:57:12;;;;;;;6.45;1.60;;;;;;;29.53;39.13;99744.34;5586161;31;33790;-71
2023/07/28 14:00:15;;;;;;;4.12;1.67;;;;;;;29.76;39.40;99738.59;5586845;31;33807;-70
2023/07/28 14:03:18;;;;;;;3.15;1.50;;;;;;;29.97;39.14;99738.94;5586922;31;33931;-69
2023/07/28 14:06:21;;;;;;;2.40;1.70;;;;;;;29.95;39.28;99743.91;5585965;31;34059;-69
2023/07/28 14:09:24;;;;;;;2.87;1.30;;;;;;;29.57;39.22;99737.16;5587097;31;34411;-69
2023/07/28 14:12:27;;;;;;;6.35;1.70;;;;;;;29.75;39.33;99728.78;5587065;31;34408;-68
2023/07/28 14:15:30;;;;;;;3.92;2.03;;;;;;;29.16;39.96;99723.53;5589410;31;33791;-68
2023/07/28 14:18:32;;;;;;;2.35;1.62;;;;;;;28.78;40.77;99737.44;5605168;31;34406;-70
2023/07/28 14:21:37;;;;;;;3.37;1.52;;;;;;;30.20;38.80;99731.53;5588720;31;34177;-68
2023/07/28 14:24:42;;;;;;;5.70;1.70;;;;;;;32.61;34.54;99740.09;5587039;31;34323;-70
2023/07/28 14:27:45;;;;;;;4.80;1.60;;;;;;;33.98;32.65;99730.19;5594029;31;34127;-69
2023/07/28 14:30:48;;;;;;;4.53;1.70;;;;;;;34.87;30.95;99732.09;5604956;31;33660;-70
2023/07/28 14:33:51;;;;;;;1.98;1.40;;;;;;;35.37;30.07;99728.16;5593989;31;33542;-70
2023/07/28 14:36:54;;;;;;;3.03;1.60;;;;;;;32.68;33.91;99715.69;5606293;31;33743;-70
2023/07/28 14:39:57;;;;;;;7.07;1.67;;;;;;;31.79;36.03;99722.03;5600882;31;33912;-69
2023/07/28 14:43:00;;;;;;;2.53;1.40;;;;;;;30.48;37.94;99704.81;5591521;31;33481;-70
2023/07/28 14:46:03;;;;;;;2.00;1.62;;;;;;;30.40;38.52;99697.34;5590061;31;33863;-69
2023/07/28 14:49:06;;;;;;;2.42;1.45;;;;;;;30.34;36.51;99699.41;5590344;31;34334;-69
2023/07/28 14:52:09;;;;;;;2.72;1.45;;;;;;;30.41;37.98;99691.53;5591297;31;33692;-70
2023/07/28 14:55:11;;;;;;;3.17;1.60;;;;;;;30.99;37.30;99688.53;5586207;31;33836;-69
2023/07/28 14:58:18;;;;;;;4.18;1.58;;;;;;;31.43;36.61;99692.16;5586109;31;34836;-69
2023/07/28 15:01:21;;;;;;;2.97;1.40;;;;;;;30.65;38.46;99688.44;5586440;31;33552;-70
2023/07/28 15:04:24;;;;;;;3.62;1.80;;;;;;;30.75;40.17;99685.41;5585961;31;33711;-70
2023/07/28 15:07:27;;;;;;;3.15;1.65;;;;;;;30.79;40.38;99677.38;5586101;31;33751;-70
2023/07/28 15:10:31;;;;;;;5.80;1.65;;;;;;;30.90;40.04;99667.72;5586097;31;33883;-67
2023/07/28 15:13:33;;;;;;;6.47;1.52;;;;;;;31.06;37.89;99672.47;5591983;31;34406;-69